Friday, August 01, 2014
14:00 UTC
  |  Log In   |  Register Free
Airport Search:

Heart Of Georgia Regional Airport
(KEZM)

Heart Of Georgia Regional Airport Diagram
No Airport Diagram Available

FAA data valid effective July 24, 2014 until September 18, 2014 (unless otherwise noted).

 
 
 
 
 
 
 
 
 
 
 
 
 
 

Current Aviation Weather for Heart Of Georgia Regional Airport (KEZM)

The most recent METAR observation for KEZM was updated at: 1835 UTC
METAR Summary (Translated METAR)
KEZM
281835Z AUTO 25010G15KT 10SM VCTS SCT040 34/26 A2993 RMK AO2 LTG DSNT SE THRU SW T03400255
KDBN
(22.1 nm NE from KEZM)
281835Z AUTO 27011G18KT 10SM SCT043 SCT060 SCT080 33/25 A2991 RMK AO2 LTG DSNT NE THRU SW
TAF Summary (Translated TAF)
KWRB
(34.6 nm NW from KEZM)
3123/0203 04009KT 9999 SCT120 QNH2999INS BECMG 3123/3124 VRB06KT 9000 -SHRA BKN030 BKN120 QNH2995INS BECMG 0105/0106 VRB06KT 9999 NSW SCT030 BKN120 QNH2994INS BECMG 0108/0109 VRB06KT 4800 BR SCT010 QNH2992INS BECMG 0114/0115 04009KT 9000 -SHRA BKN030 QNH2990INS BECMG 0120/0121 09006KT 9999 NSW SCT050 QNH2989INS TX31/0121Z TN20/0108Z AMD 312353
  Airport Weather Conditions for KEZM

 Current Weather at EZM
74° F
Fog/Mist
Northeast winds at 5.8 mph
EZM NOAA Radar

Pressure: 30.05 in
Humidity: 100%
Wind: Northeast at 5.8 MPH (5 KT)
Dew Point: 73.8°F
Visibility: 4.00 mi


Airport Weather Forecast for KEZM

Translated METAR and TAF for KEZM
Translated METAR for KEZM (1354 UTC 01 August 2014)
found at http://aviationweather.gov/adds/metars/
 
METAR text: KEZM 011335Z AUTO 05006KT 5SM BR OVC004 24/24 A3005 RMK AO2 LTG DSNT E AND SE T02400240
Conditions at: KEZM (EASTMAN , GA, US) observed 1335 UTC 01 August 2014
Temperature: 24.0°C (75°F)
Dewpoint: 24.0°C (75°F) [RH = 100%]
Pressure (altimeter): 30.05 inches Hg (1017.7 mb)
Winds: from the NE (50 degrees) at 7 MPH (6 knots; 3.1 m/s)
Visibility: 5 miles (8 km)
Ceiling: 400 feet AGL
Clouds: overcast cloud deck at 400 feet AGL
Weather: BR  (mist)
Translated TAF for KEZM

There is no translated TAF available for this airport

Find All Airport Services Find A Hotel Find A Rental Car Find A Golf Course Find A Restaurant $100 Hamburger



FBO's on the Field
FBO Company Facility Photos Services Transportation Aviation Fuel Prices: Prices include tax
Catering Weather Repair Courtesy Rental Type 100LL JetA JetA+ MOGAS 8087
 
Heart of Georgia Regional Airport

This FBO has not yet been rated
FS:Phillips66
Last Updated: Jul-23
Login to update fuel prices
SS:
Contact Heart of Georgia Regional AirportMore FBO Information
 
Add another FBO Facility Photos Catering Weather Repair Courtesy Rental Type 100LL JetA JetA+ MOGAS 8087
Services Transportation Aviation Fuel Prices: Prices include tax


GlobalAir.com Airport Resource Center model-print
model-print
model-print
model-print